Airfield :
LOGIN :

Register | Disclaimer

   EN    FR    IT 

 










Legend :    VFR   Marginal VFR   IFR   Intensive IFR   Very Intensive IFR
Visi :
Ceiling :
>= 8 km
>= 3000ft
5 to 8 km
1000 to 3000 ft
1500m to 5 km
500 to 1000 ft
800 to 1500m
200 to 500 ft
< 800m
< 200 ft
Symbols :   Thunderstorms  Fog  Heavy snow  Heavy precipitations  Wind > 20 kt
SIGMETs :     Misc.  Thunderstorms  Icing  Turbulence  Mountain Waves  Volcanic Ashes






- Airport Elevation : 24 ft
- IATA code : FAO


LPFR - Faro

CURRENT METAR :
  • 012000Z 29013KT CAVOK 20/12 Q1015

EXPIRED METARs :
  • 011930Z 29012KT CAVOK 21/12 Q1014
  • 011900Z 29013KT CAVOK 22/12 Q1014
  • 011830Z 29015KT CAVOK 22/12 Q1014
  • 011800Z 29017KT CAVOK 23/12 Q1014
  • 011730Z 29018KT CAVOK 24/13 Q1013

TAF TAF LPFR
Valid from the 01 at 18:00 until the 02 at 18:00 UTC


011700Z 0118/0218 30015KT 9999 FEW020
BECMG 0122/0124 31007KT
BECMG 0204/0206 27015KT 9999 SCT018
TEMPO 0204/0215 27018G28KT 5000 -RADZ BR SCT008 BKN012



MET'MAP, your aeronautical weather chart ! - Copyright ORBIFLY December 2007 - Disclaimer

ORBIFLY MET'MAP TEAM :

Programming & Development : Alexandra Zaïnal
Concept & original design : Baudouin d'Aumeries
Assistance for programming : Marc-Olivier Méhu
Technical & hardware support : Manuel Goepfert

Contact : metmap@orbifly.com




SOURCES & CREDITS :

   NOAA